createdAt,value
2023-05-01T00:02:25.791Z,4.00
2023-05-01T00:04:54.516Z,3.73
2023-05-01T00:07:23.385Z,3.90
2023-05-01T00:09:54.390Z,3.53
2023-05-01T00:12:23.305Z,3.97
2023-05-01T00:14:52.022Z,3.73
2023-05-01T00:17:22.997Z,3.90
2023-05-01T00:19:53.996Z,3.80
2023-05-01T00:22:23.259Z,3.73
2023-05-01T00:24:53.616Z,3.43
2023-05-01T00:27:22.412Z,3.70
2023-05-01T00:29:51.154Z,3.50
2023-05-01T00:32:19.999Z,3.70
2023-05-01T00:34:49.575Z,3.40
2023-05-01T00:37:18.614Z,3.60
2023-05-01T00:39:47.285Z,3.37
2023-05-01T00:42:17.485Z,4.20
2023-05-01T00:44:46.313Z,3.70
2023-05-01T00:47:15.113Z,3.53
2023-05-01T00:49:44.231Z,3.50
2023-05-01T00:52:13.343Z,3.87
2023-05-01T00:54:42.294Z,3.57
2023-05-01T00:57:11.272Z,3.83
2023-05-01T00:59:41.924Z,3.67
2023-05-01T01:02:12.747Z,4.30
2023-05-01T01:04:43.396Z,3.70
2023-05-01T01:07:21.629Z,3.73
2023-05-01T01:10:05.678Z,3.90
2023-05-01T01:12:41.708Z,3.60
2023-05-01T01:15:19.868Z,3.80
2023-05-01T01:17:54.472Z,3.80
2023-05-01T01:20:38.086Z,3.77
2023-05-01T01:23:34.799Z,3.80
2023-05-01T01:26:32.922Z,3.60
2023-05-01T01:29:35.137Z,3.60
2023-05-01T01:32:13.089Z,4.40
2023-05-01T01:34:49.134Z,3.60
2023-05-01T01:37:23.714Z,3.53
2023-05-01T01:39:56.964Z,4.00
2023-05-01T01:42:31.468Z,3.77
2023-05-01T01:45:05.280Z,4.07
2023-05-01T01:47:35.735Z,4.03
2023-05-01T01:50:09.758Z,3.90
2023-05-01T01:52:40.936Z,3.33
2023-05-01T01:55:13.411Z,3.97
2023-05-01T01:57:44.384Z,4.40
2023-05-01T02:00:16.603Z,4.10
2023-05-01T02:02:50.183Z,4.03
2023-05-01T02:05:22.765Z,3.90
2023-05-01T02:07:52.951Z,4.60
2023-05-01T02:10:23.746Z,4.17
2023-05-01T02:12:54.745Z,4.40
2023-05-01T02:15:24.808Z,4.50
2023-05-01T02:17:54.816Z,4.60
2023-05-01T02:20:25.190Z,4.57
2023-05-01T02:22:54.996Z,4.83
2023-05-01T02:25:24.923Z,4.90
2023-05-01T02:27:57.757Z,5.30
2023-05-01T02:30:26.540Z,4.63
2023-05-01T02:32:55.423Z,4.90
2023-05-01T02:35:25.760Z,4.87
2023-05-01T02:37:54.836Z,5.03
2023-05-01T02:40:23.697Z,5.40
2023-05-01T02:42:54.340Z,5.50
2023-05-01T02:45:26.938Z,5.37
2023-05-01T02:48:01.072Z,5.43
2023-05-01T02:50:32.361Z,5.27
2023-05-01T02:53:02.425Z,5.20
2023-05-01T02:55:46.265Z,4.90
2023-05-01T02:58:18.194Z,5.27
2023-05-01T03:00:47.416Z,5.30
2023-05-01T03:03:16.817Z,5.40
2023-05-01T03:05:48.035Z,5.60
2023-05-01T03:08:17.308Z,5.13
2023-05-01T03:10:46.086Z,5.37
2023-05-01T03:13:14.883Z,5.07
2023-05-01T03:15:43.696Z,5.27
2023-05-01T03:18:12.597Z,5.20
2023-05-01T03:20:41.773Z,5.30
2023-05-01T03:23:12.216Z,4.90
2023-05-01T03:25:41.127Z,5.50
2023-05-01T03:28:10.322Z,5.30
2023-05-01T03:30:39.441Z,5.10
2023-05-01T03:33:08.225Z,5.20
2023-05-01T03:35:37.143Z,5.30
2023-05-01T03:38:07.730Z,5.37
2023-05-01T03:40:56.346Z,5.43
2023-05-01T03:44:00.280Z,5.77
2023-05-01T03:46:34.292Z,5.67
2023-05-01T03:49:03.194Z,5.37
2023-05-01T03:51:35.844Z,5.60
2023-05-01T03:54:05.210Z,5.50
2023-05-01T03:56:46.528Z,5.40
2023-05-01T03:59:15.158Z,5.43
2023-05-01T04:01:44.490Z,5.10
2023-05-01T04:04:14.186Z,5.43
2023-05-01T04:06:48.747Z,5.27
2023-05-01T04:09:32.656Z,5.63
2023-05-01T04:12:02.435Z,5.50
2023-05-01T04:14:31.395Z,5.53
2023-05-01T04:17:00.709Z,5.73
2023-05-01T04:19:30.767Z,5.53
2023-05-01T04:22:01.608Z,5.40
2023-05-01T04:24:34.084Z,5.67
2023-05-01T04:27:02.996Z,5.40
2023-05-01T04:29:31.829Z,5.50
2023-05-01T04:32:01.147Z,5.50
2023-05-01T04:34:30.504Z,5.43
2023-05-01T04:36:59.365Z,5.70
2023-05-01T04:39:28.168Z,6.03
2023-05-01T04:42:00.274Z,5.93
2023-05-01T04:44:29.244Z,5.37
2023-05-01T04:46:58.306Z,5.63
2023-05-01T04:49:26.920Z,5.50
2023-05-01T04:51:55.788Z,5.63
2023-05-01T04:54:26.621Z,5.67
2023-05-01T04:56:55.558Z,5.77
2023-05-01T04:59:26.056Z,5.23
2023-05-01T05:01:56.739Z,5.77
2023-05-01T05:04:25.744Z,5.47
2023-05-01T05:06:54.532Z,6.10
2023-05-01T05:09:31.141Z,5.50
2023-05-01T05:11:59.829Z,5.37
2023-05-01T05:14:30.830Z,5.80
2023-05-01T05:16:59.574Z,5.53
2023-05-01T05:19:28.874Z,5.60
2023-05-01T05:21:57.521Z,5.17
2023-05-01T05:24:26.690Z,5.63
2023-05-01T05:26:55.776Z,5.90
2023-05-01T05:29:24.650Z,5.87
2023-05-01T05:31:57.212Z,5.23
2023-05-01T05:34:25.935Z,5.50
2023-05-01T05:36:54.631Z,5.43
2023-05-01T05:39:26.556Z,6.13
2023-05-01T05:41:55.606Z,6.20
2023-05-01T05:44:24.450Z,5.93
2023-05-01T05:46:54.684Z,5.70
2023-05-01T05:49:30.776Z,5.70
2023-05-01T05:51:59.655Z,6.03
2023-05-01T05:54:28.708Z,5.50
2023-05-01T05:56:57.373Z,5.63
2023-05-01T05:59:26.362Z,5.80
2023-05-01T06:01:57.592Z,6.27
2023-05-01T06:04:26.388Z,6.20
2023-05-01T06:06:55.737Z,6.53
2023-05-01T06:09:24.532Z,6.00
2023-05-01T06:11:53.359Z,6.40
2023-05-01T06:14:22.192Z,6.60
2023-05-01T06:16:50.963Z,6.60
2023-05-01T06:19:21.362Z,6.27
2023-05-01T06:21:53.903Z,6.23
2023-05-01T06:24:22.685Z,6.70
2023-05-01T06:26:54.224Z,6.93
2023-05-01T06:29:23.221Z,6.57
2023-05-01T06:31:51.978Z,6.67
2023-05-01T06:34:22.853Z,6.87
2023-05-01T06:36:54.849Z,6.43
2023-05-01T06:39:24.467Z,6.33
2023-05-01T06:41:53.368Z,7.00
2023-05-01T06:44:32.970Z,6.77
2023-05-01T06:47:03.633Z,6.43
2023-05-01T06:49:33.987Z,6.72
2023-05-01T06:52:03.320Z,6.60
2023-05-01T06:54:32.192Z,6.85
2023-05-01T06:57:00.839Z,6.35
2023-05-01T06:59:30.008Z,6.63
2023-05-01T07:01:58.765Z,7.15
2023-05-01T07:04:27.594Z,6.80
2023-05-01T07:06:57.801Z,6.55
2023-05-01T07:09:26.644Z,6.50
2023-05-01T07:11:57.044Z,6.43
2023-05-01T07:14:25.800Z,6.70
2023-05-01T07:16:55.768Z,6.95
2023-05-01T07:19:24.621Z,6.55
2023-05-01T07:21:54.099Z,6.03
2023-05-01T07:24:24.321Z,6.30
2023-05-01T07:26:53.024Z,6.40
2023-05-01T07:29:21.713Z,5.78
2023-05-01T07:31:50.522Z,6.10
2023-05-01T07:34:19.796Z,6.57
2023-05-01T07:36:48.488Z,6.10
2023-05-01T07:39:18.046Z,6.50
2023-05-01T07:41:48.400Z,6.00
2023-05-01T07:44:17.120Z,6.50
2023-05-01T07:46:45.904Z,6.30
2023-05-01T07:49:14.591Z,6.20
2023-05-01T07:51:44.890Z,6.10
2023-05-01T07:54:15.535Z,5.97
2023-05-01T07:56:44.434Z,5.88
2023-05-01T07:59:15.292Z,5.30
2023-05-01T08:01:44.024Z,6.15
2023-05-01T08:04:12.984Z,6.15
2023-05-01T08:06:42.025Z,5.85
2023-05-01T08:09:11.013Z,6.28
2023-05-01T08:11:39.705Z,5.95
2023-05-01T08:14:08.430Z,5.85
2023-05-01T08:16:38.720Z,5.80
2023-05-01T08:19:07.448Z,5.90
2023-05-01T08:21:36.409Z,5.75
2023-05-01T08:24:05.404Z,5.50
2023-05-01T08:26:34.161Z,5.38
2023-05-01T08:29:02.923Z,5.50
2023-05-01T08:31:31.729Z,5.80
2023-05-01T08:34:01.917Z,5.53
2023-05-01T08:36:31.949Z,5.45
2023-05-01T08:39:00.659Z,5.38
2023-05-01T08:41:30.789Z,5.60
2023-05-01T08:44:01.731Z,4.80
2023-05-01T08:46:39.795Z,4.70
2023-05-01T08:49:12.875Z,4.80
2023-05-01T08:51:43.194Z,4.85
2023-05-01T08:54:12.823Z,4.60
2023-05-01T08:56:42.252Z,4.88
2023-05-01T08:59:14.601Z,4.97
2023-05-01T09:01:44.491Z,4.20
2023-05-01T09:04:15.781Z,4.45
2023-05-01T09:06:45.451Z,4.60
2023-05-01T09:09:14.785Z,4.72
2023-05-01T09:11:46.040Z,4.60
2023-05-01T09:14:14.713Z,4.97
2023-05-01T09:16:43.512Z,4.72
2023-05-01T09:19:13.712Z,4.72
2023-05-01T09:21:42.717Z,4.60
2023-05-01T09:24:11.481Z,4.90
2023-05-01T09:26:42.073Z,4.90
2023-05-01T09:29:11.648Z,4.78
2023-05-01T09:31:40.698Z,4.65
2023-05-01T09:34:09.588Z,4.53
2023-05-01T09:36:41.016Z,4.82
2023-05-01T09:39:09.571Z,4.88
2023-05-01T09:41:52.672Z,5.00
2023-05-01T09:44:21.568Z,4.40
2023-05-01T09:46:50.888Z,4.88
2023-05-01T09:49:19.585Z,4.70
2023-05-01T09:51:51.178Z,5.10
2023-05-01T09:54:21.205Z,4.03
2023-05-01T09:56:50.903Z,4.75
2023-05-01T09:59:20.896Z,4.82
2023-05-01T10:01:50.972Z,4.47
2023-05-01T10:04:30.545Z,4.68
2023-05-01T10:07:01.777Z,4.68
2023-05-01T10:09:32.502Z,5.30
2023-05-01T10:12:01.205Z,4.97
2023-05-01T10:14:30.633Z,4.85
2023-05-01T10:16:59.528Z,5.28
2023-05-01T10:19:28.456Z,4.97
2023-05-01T10:21:57.155Z,4.90
2023-05-01T10:24:27.386Z,4.55
2023-05-01T10:26:57.357Z,4.80
2023-05-01T10:29:29.126Z,4.55
2023-05-01T10:31:58.110Z,4.60
2023-05-01T10:34:28.622Z,4.90
2023-05-01T10:37:02.028Z,5.18
2023-05-01T10:39:36.304Z,4.70
2023-05-01T10:42:06.790Z,5.10
2023-05-01T10:44:36.068Z,4.80
2023-05-01T10:47:43.027Z,5.05
2023-05-01T10:50:12.575Z,4.97
2023-05-01T10:53:18.751Z,5.00
2023-05-01T10:55:50.468Z,5.40
2023-05-01T10:59:10.724Z,5.65
2023-05-01T11:01:40.964Z,5.10
2023-05-01T11:04:51.187Z,6.50
2023-05-01T11:07:20.938Z,7.03
2023-05-01T11:09:54.998Z,7.25
2023-05-01T11:12:53.129Z,7.63
2023-05-01T11:15:29.630Z,8.90
2023-05-01T11:17:59.310Z,8.90
2023-05-01T11:21:02.787Z,9.73
2023-05-01T11:23:31.618Z,9.00
2023-05-01T11:26:06.171Z,9.85
2023-05-01T11:28:37.109Z,9.13
2023-05-01T11:31:05.906Z,9.75
2023-05-01T11:33:35.355Z,10.23
2023-05-01T11:36:05.198Z,10.68
2023-05-01T11:38:33.923Z,10.05
2023-05-01T11:41:05.273Z,10.77
2023-05-01T11:43:35.620Z,10.25
2023-05-01T11:46:04.425Z,10.60
2023-05-01T11:48:33.895Z,10.40
2023-05-01T11:51:02.737Z,11.38
2023-05-01T11:53:32.477Z,11.07
2023-05-01T11:56:01.459Z,10.27
2023-05-01T11:58:36.697Z,10.73
2023-05-01T12:01:07.568Z,10.55
2023-05-01T12:03:43.923Z,10.23
2023-05-01T12:06:14.389Z,10.50
2023-05-01T12:08:51.288Z,10.82
2023-05-01T12:11:21.542Z,10.32
2023-05-01T12:13:51.964Z,10.75
2023-05-01T12:16:20.832Z,11.50
2023-05-01T12:18:49.736Z,11.75
2023-05-01T12:21:19.974Z,11.40
2023-05-01T12:23:49.699Z,11.40
2023-05-01T12:26:19.441Z,11.67
2023-05-01T12:29:01.055Z,11.00
2023-05-01T12:31:31.003Z,11.67
2023-05-01T12:34:02.766Z,11.20
2023-05-01T12:36:33.699Z,11.63
2023-05-01T12:39:06.237Z,12.00
2023-05-01T12:41:37.530Z,11.80
2023-05-01T12:44:22.573Z,11.70
2023-05-01T12:47:00.449Z,11.18
2023-05-01T12:49:30.627Z,11.02
2023-05-01T12:52:03.714Z,10.88
2023-05-01T12:54:33.774Z,11.15
2023-05-01T12:57:09.685Z,10.40
2023-05-01T12:59:41.372Z,10.30
2023-05-01T13:02:12.924Z,10.15
2023-05-01T13:04:42.595Z,10.18
2023-05-01T13:07:15.914Z,10.15
2023-05-01T13:09:53.685Z,10.30
2023-05-01T13:12:23.133Z,10.43
2023-05-01T13:14:53.744Z,10.20
2023-05-01T13:17:27.373Z,10.00
2023-05-01T13:19:57.125Z,10.40
2023-05-01T13:22:33.900Z,10.43
2023-05-01T13:25:03.991Z,9.90
2023-05-01T13:27:33.134Z,9.63
2023-05-01T13:30:04.072Z,8.70
2023-05-01T13:32:33.865Z,9.60
2023-05-01T13:35:03.485Z,9.45
2023-05-01T13:37:32.614Z,10.43
2023-05-01T13:40:02.263Z,9.75
2023-05-01T13:42:31.322Z,9.50
2023-05-01T13:45:00.466Z,9.15
2023-05-01T13:47:31.547Z,10.38
2023-05-01T13:50:00.652Z,9.90
2023-05-01T13:52:29.684Z,10.32
2023-05-01T13:54:58.788Z,10.70
2023-05-01T13:57:28.859Z,10.98
2023-05-01T13:59:57.634Z,11.50
2023-05-01T14:02:29.443Z,11.05
2023-05-01T14:05:01.688Z,10.57
2023-05-01T14:07:30.491Z,11.07
2023-05-01T14:10:00.952Z,10.65
2023-05-01T14:12:32.429Z,9.75
2023-05-01T14:15:01.944Z,10.38
2023-05-01T14:17:33.260Z,9.65
2023-05-01T14:20:05.183Z,9.48
2023-05-01T14:22:45.155Z,9.50
2023-05-01T14:25:26.108Z,9.15
2023-05-01T14:27:55.826Z,9.27
2023-05-01T14:30:33.782Z,9.67
2023-05-01T14:33:03.966Z,9.40
2023-05-01T14:35:34.959Z,9.57
2023-05-01T14:38:38.719Z,9.00
2023-05-01T14:41:10.033Z,8.53
2023-05-01T14:43:44.035Z,8.40
2023-05-01T14:46:14.658Z,8.45
2023-05-01T14:48:44.074Z,7.85
2023-05-01T14:51:14.586Z,8.25
2023-05-01T14:53:43.888Z,7.85
2023-05-01T14:56:13.408Z,7.90
2023-05-01T14:58:42.341Z,9.07
2023-05-01T15:01:11.081Z,8.40
2023-05-01T15:03:41.632Z,7.05
2023-05-01T15:06:10.765Z,7.95
2023-05-01T15:08:41.130Z,8.43
2023-05-01T15:11:09.888Z,7.80
2023-05-01T15:13:38.744Z,8.20
2023-05-01T15:16:08.489Z,8.15
2023-05-01T15:18:37.400Z,8.35
2023-05-01T15:21:06.633Z,10.23
2023-05-01T15:23:37.134Z,7.83
2023-05-01T15:26:07.397Z,7.93
2023-05-01T15:28:35.950Z,8.38
2023-05-01T15:31:04.715Z,8.40
2023-05-01T15:33:33.585Z,8.35
2023-05-01T15:36:02.409Z,8.55
2023-05-01T15:38:31.374Z,8.85
2023-05-01T15:41:00.139Z,8.30
2023-05-01T15:43:30.687Z,7.97
2023-05-01T15:45:59.958Z,8.45
2023-05-01T15:48:28.815Z,8.23
2023-05-01T15:50:57.584Z,8.30
2023-05-01T15:53:26.161Z,8.05
2023-05-01T15:55:58.775Z,7.63
2023-05-01T15:58:27.432Z,7.88
2023-05-01T16:00:57.580Z,7.93
2023-05-01T16:03:26.440Z,8.43
2023-05-01T16:05:56.320Z,7.38
2023-05-01T16:08:27.890Z,6.97
2023-05-01T16:10:58.228Z,7.40
2023-05-01T16:13:27.205Z,6.90
2023-05-01T16:15:57.317Z,7.03
2023-05-01T16:18:26.733Z,6.75
2023-05-01T16:20:56.839Z,7.25
2023-05-01T16:23:26.788Z,6.93
2023-05-01T16:25:55.735Z,6.85
2023-05-01T16:28:26.826Z,6.78
2023-05-01T16:30:57.433Z,7.07
2023-05-01T16:33:26.241Z,6.75
2023-05-01T16:35:54.822Z,6.57
2023-05-01T16:38:23.478Z,6.93
2023-05-01T16:40:52.129Z,6.38
2023-05-01T16:43:22.811Z,6.35
2023-05-01T16:45:54.268Z,7.38
2023-05-01T16:48:26.185Z,6.57
2023-05-01T16:50:55.082Z,6.85
2023-05-01T16:53:23.814Z,5.90
2023-05-01T16:55:53.066Z,5.90
2023-05-01T16:58:22.207Z,6.20
2023-05-01T17:00:50.915Z,5.32
2023-05-01T17:03:19.534Z,6.93
2023-05-01T17:05:49.765Z,6.10
2023-05-01T17:08:18.445Z,5.07
2023-05-01T17:10:49.109Z,5.28
2023-05-01T17:13:17.913Z,5.35
2023-05-01T17:15:46.695Z,5.63
2023-05-01T17:18:15.706Z,5.13
2023-05-01T17:20:44.425Z,5.22
2023-05-01T17:23:14.561Z,5.15
2023-05-01T17:25:43.319Z,5.82
2023-05-01T17:28:12.193Z,5.18
2023-05-01T17:30:41.078Z,5.53
2023-05-01T17:33:09.964Z,5.38
2023-05-01T17:35:38.588Z,5.88
2023-05-01T17:38:07.373Z,5.60
2023-05-01T17:40:37.559Z,5.80
2023-05-01T17:43:06.126Z,5.88
2023-05-01T17:45:34.829Z,6.72
2023-05-01T17:48:03.622Z,5.50
2023-05-01T17:50:32.241Z,5.85
2023-05-01T17:53:00.891Z,5.40
2023-05-01T17:55:29.922Z,6.10
2023-05-01T17:58:00.184Z,11.82
2023-05-01T18:00:29.118Z,6.30
2023-05-01T18:02:57.978Z,5.78
2023-05-01T18:06:17.207Z,6.10
2023-05-01T18:08:46.048Z,6.38
2023-05-01T18:11:14.669Z,6.43
2023-05-01T18:13:48.130Z,6.47
2023-05-01T18:16:18.490Z,6.70
2023-05-01T18:18:48.322Z,6.35
2023-05-01T18:21:17.097Z,6.70
2023-05-01T18:23:48.477Z,6.73
2023-05-01T18:26:19.365Z,7.23
2023-05-01T18:28:49.566Z,7.60
2023-05-01T18:31:18.295Z,7.37
2023-05-01T18:33:47.408Z,7.70
2023-05-01T18:36:40.434Z,8.30
2023-05-01T18:39:10.686Z,8.10
2023-05-01T18:41:45.013Z,8.67
2023-05-01T18:44:15.188Z,8.87
2023-05-01T18:46:44.197Z,9.23
2023-05-01T18:49:15.109Z,9.00
2023-05-01T18:51:49.311Z,8.73
2023-05-01T18:54:18.352Z,9.30
2023-05-01T18:56:47.537Z,8.80
2023-05-01T18:59:17.993Z,8.90
2023-05-01T19:01:47.802Z,9.57
2023-05-01T19:04:16.515Z,9.17
2023-05-01T19:06:45.502Z,9.60
2023-05-01T19:09:14.620Z,10.70
2023-05-01T19:11:43.497Z,10.43
2023-05-01T19:14:12.488Z,10.63
2023-05-01T19:16:42.893Z,10.00
2023-05-01T19:19:12.004Z,10.43
2023-05-01T19:21:40.760Z,10.53
2023-05-01T19:24:09.802Z,11.27
2023-05-01T19:26:38.659Z,11.33
2023-05-01T19:29:07.498Z,11.10
2023-05-01T19:31:36.282Z,11.53
2023-05-01T19:34:07.704Z,11.97
2023-05-01T19:36:36.481Z,11.67
2023-05-01T19:39:05.587Z,13.00
2023-05-01T19:41:34.848Z,12.83
2023-05-01T19:44:03.581Z,13.90
2023-05-01T19:46:37.315Z,12.53
2023-05-01T19:49:08.341Z,12.97
2023-05-01T19:51:37.261Z,12.67
2023-05-01T19:54:06.010Z,11.10
2023-05-01T19:56:34.822Z,10.87
2023-05-01T19:59:29.913Z,9.90
2023-05-01T20:02:00.468Z,11.03
2023-05-01T20:04:31.695Z,12.00
2023-05-01T20:07:02.448Z,13.07
2023-05-01T20:09:31.096Z,14.50
2023-05-01T20:11:59.687Z,12.97
2023-05-01T20:14:28.458Z,12.50
2023-05-01T20:16:57.063Z,13.70
2023-05-01T20:19:26.287Z,12.77
2023-05-01T20:21:56.479Z,13.10
2023-05-01T20:24:25.204Z,12.40
2023-05-01T20:26:55.966Z,12.80
2023-05-01T20:29:24.671Z,12.73
2023-05-01T20:31:53.367Z,13.70
2023-05-01T20:34:22.114Z,13.20
2023-05-01T20:36:50.871Z,13.27
2023-05-01T20:39:21.194Z,13.33
2023-05-01T20:41:49.909Z,12.43
2023-05-01T20:44:18.579Z,12.50
2023-05-01T20:46:47.474Z,13.57
2023-05-01T20:49:16.335Z,13.10
2023-05-01T20:51:44.858Z,13.03
2023-05-01T20:54:13.500Z,14.10
2023-05-01T20:56:43.690Z,13.07
2023-05-01T20:59:12.341Z,12.67
2023-05-01T21:01:40.995Z,13.80
2023-05-01T21:04:09.992Z,14.80
2023-05-01T21:06:39.029Z,15.57
2023-05-01T21:09:11.129Z,15.50
2023-05-01T21:11:42.657Z,15.00
2023-05-01T21:14:11.554Z,15.20
2023-05-01T21:16:40.979Z,13.37
2023-05-01T21:19:12.184Z,13.50
2023-05-01T21:21:40.908Z,14.63
2023-05-01T21:24:10.097Z,13.90
2023-05-01T21:26:39.482Z,13.73
2023-05-01T21:29:09.820Z,14.63
2023-05-01T21:31:40.464Z,14.87
2023-05-01T21:34:13.546Z,14.47
2023-05-01T21:36:46.243Z,15.27
2023-05-01T21:39:15.738Z,14.53
2023-05-01T21:41:44.486Z,13.90
2023-05-01T21:44:15.290Z,14.50
2023-05-01T21:46:44.295Z,14.60
2023-05-01T21:49:13.576Z,14.03
2023-05-01T21:51:45.192Z,15.50
2023-05-01T21:54:13.944Z,14.60
2023-05-01T21:56:42.856Z,15.13
2023-05-01T21:59:12.978Z,15.10
2023-05-01T22:02:08.873Z,14.50
2023-05-01T22:04:38.851Z,14.60
2023-05-01T22:07:08.869Z,14.87
2023-05-01T22:09:40.697Z,13.90
2023-05-01T22:12:10.338Z,13.57
2023-05-01T22:14:47.108Z,13.67
2023-05-01T22:17:24.434Z,13.53
2023-05-01T22:19:54.081Z,13.73
2023-05-01T22:22:23.260Z,13.37
2023-05-01T22:24:52.444Z,13.83
2023-05-01T22:27:21.708Z,14.23
2023-05-01T22:29:50.808Z,14.07
2023-05-01T22:32:21.477Z,14.27
2023-05-01T22:34:50.383Z,14.67
2023-05-01T22:37:19.747Z,13.73
2023-05-01T22:39:48.417Z,14.40
2023-05-01T22:42:17.267Z,14.20
2023-05-01T22:44:46.014Z,14.87
2023-05-01T22:47:14.938Z,14.90
2023-05-01T22:49:45.066Z,14.97
2023-05-01T22:52:13.777Z,15.17
2023-05-01T22:54:42.407Z,14.93
2023-05-01T22:57:11.611Z,15.93
2023-05-01T22:59:41.204Z,15.23
2023-05-01T23:02:10.161Z,15.80
2023-05-01T23:04:38.812Z,15.47
2023-05-01T23:07:09.058Z,16.43
2023-05-01T23:09:37.870Z,14.90
2023-05-01T23:12:07.362Z,16.10
2023-05-01T23:14:38.282Z,15.03
2023-05-01T23:17:07.359Z,14.93
2023-05-01T23:19:36.166Z,15.70
2023-05-01T23:22:09.811Z,15.90
2023-05-01T23:24:44.237Z,15.30
2023-05-01T23:27:15.635Z,16.17
2023-05-01T23:29:50.767Z,15.80
2023-05-01T23:32:25.877Z,16.20
2023-05-01T23:34:55.020Z,16.93
2023-05-01T23:37:25.335Z,16.00
2023-05-01T23:39:54.708Z,17.70
2023-05-01T23:42:24.441Z,17.87
2023-05-01T23:44:53.104Z,16.93
2023-05-01T23:47:21.994Z,16.77
2023-05-01T23:49:51.032Z,17.40
2023-05-01T23:52:19.736Z,17.57
2023-05-01T23:54:49.860Z,16.57
2023-05-01T23:57:18.613Z,17.33
2023-05-01T23:59:47.384Z,17.40
